Time;durP1;ratioP1;P1;durP2;ratioP2;P2;SDS_P1;SDS_P2;PMS_P1;PMS_P2;Temp;Humidity;BMP_temperature;BMP_pressure;BME280_temperature;BME280_humidity;BME280_pressure;Samples;Min_cycle;Max_cycle;Signal;HPM_P1;HPM_P2
2020/12/17 00:02:23;;;;;;;48.13;23.98;;;3.30;99.90;;;;;;5016114;28;20053;-83
2020/12/17 00:04:49;;;;;;;54.00;25.38;;;3.40;99.90;;;;;;5014747;28;20502;-83
2020/12/17 00:07:16;;;;;;;43.70;22.45;;;3.50;99.90;;;;;;5014476;28;20494;-82
2020/12/17 00:09:42;;;;;;;52.60;23.73;;;3.60;99.90;;;;;;5014598;28;20113;-83
2020/12/17 00:12:08;;;;;;;54.92;25.27;;;3.70;99.90;;;;;;5014549;28;20054;-83
2020/12/17 00:14:34;;;;;;;60.47;25.35;;;3.70;99.90;;;;;;5014049;28;20470;-83
2020/12/17 00:17:00;;;;;;;52.85;25.58;;;3.80;99.90;;;;;;5014436;28;20585;-82
2020/12/17 00:19:27;;;;;;;50.58;24.27;;;3.90;99.90;;;;;;5014024;28;20162;-82
2020/12/17 00:21:53;;;;;;;62.83;25.90;;;4.10;99.90;;;;;;5013854;28;20100;-82
2020/12/17 00:24:19;;;;;;;54.50;23.50;;;4.00;99.90;;;;;;5013677;28;20050;-82
2020/12/17 00:26:45;;;;;;;62.53;26.52;;;4.10;99.90;;;;;;5015086;28;20052;-83
2020/12/17 00:29:12;;;;;;;53.08;25.05;;;4.10;99.90;;;;;;5013186;28;20085;-83
2020/12/17 00:31:38;;;;;;;61.92;26.85;;;4.20;99.90;;;;;;5013492;28;20046;-82
2020/12/17 00:34:04;;;;;;;64.95;27.77;;;4.30;99.90;;;;;;5013317;28;20049;-83
2020/12/17 00:36:36;;;;;;;61.53;26.20;;;4.40;99.90;;;;;;5013285;28;20115;-82
2020/12/17 00:39:02;;;;;;;56.05;25.00;;;4.40;99.90;;;;;;5014780;28;20054;-82
2020/12/17 00:41:29;;;;;;;76.03;29.88;;;4.50;99.90;;;;;;5013100;28;20133;-82
2020/12/17 00:43:55;;;;;;;65.93;27.25;;;4.70;99.90;;;;;;5013141;28;20495;-82
2020/12/17 00:46:21;;;;;;;59.13;25.50;;;5.00;99.90;;;;;;5013904;28;20054;-82
2020/12/17 00:48:50;;;;;;;45.67;20.35;;;5.10;99.90;;;;;;5014160;28;20073;-83
2020/12/17 00:51:18;;;;;;;39.85;18.88;;;5.20;99.90;;;;;;5013812;28;20522;-82
2020/12/17 00:53:44;;;;;;;35.47;17.85;;;5.20;99.90;;;;;;5012794;28;20046;-82
2020/12/17 00:56:11;;;;;;;32.83;16.77;;;5.30;99.90;;;;;;5011549;28;20073;-83
2020/12/17 00:58:37;;;;;;;28.20;15.80;;;5.40;99.90;;;;;;5012506;28;20069;-82
2020/12/17 01:01:06;;;;;;;30.58;16.08;;;5.40;99.90;;;;;;5013678;28;20582;-83
2020/12/17 01:03:32;;;;;;;29.85;16.10;;;5.40;99.90;;;;;;5013920;28;20089;-81
2020/12/17 01:05:59;;;;;;;28.85;16.05;;;5.40;99.90;;;;;;5014937;28;20085;-82
2020/12/17 01:08:25;;;;;;;28.13;14.90;;;5.40;99.90;;;;;;5012463;28;20481;-82
2020/12/17 01:10:52;;;;;;;25.45;14.77;;;5.50;99.90;;;;;;5012474;28;20485;-81
2020/12/17 01:13:20;;;;;;;25.88;14.60;;;5.50;99.90;;;;;;5012175;28;20045;-82
2020/12/17 01:15:47;;;;;;;23.92;14.57;;;5.60;99.90;;;;;;5012715;28;20100;-82
2020/12/17 01:18:13;;;;;;;22.00;13.15;;;5.50;99.90;;;;;;5012574;28;20137;-82
2020/12/17 01:20:39;;;;;;;23.42;13.77;;;5.60;99.90;;;;;;5012643;28;20141;-82
2020/12/17 01:23:05;;;;;;;22.13;13.02;;;5.60;99.90;;;;;;5012145;28;20526;-81
2020/12/17 01:25:32;;;;;;;22.02;13.30;;;5.50;99.90;;;;;;5012690;28;20085;-82
2020/12/17 01:27:58;;;;;;;20.60;13.18;;;5.50;99.90;;;;;;5013128;28;20104;-81
2020/12/17 01:30:24;;;;;;;19.98;12.30;;;5.50;99.90;;;;;;5014638;28;20050;-80
2020/12/17 01:32:52;;;;;;;19.10;12.63;;;5.50;99.90;;;;;;5037945;28;20058;-83
2020/12/17 01:35:20;;;;;;;18.95;11.50;;;5.60;99.90;;;;;;5037959;28;20030;-82
2020/12/17 01:37:46;;;;;;;19.95;11.85;;;5.60;99.90;;;;;;5036980;28;20046;-83
2020/12/17 01:40:12;;;;;;;18.08;11.45;;;5.60;99.90;;;;;;5021196;28;20081;-83
2020/12/17 01:42:39;;;;;;;19.20;12.63;;;5.60;99.90;;;;;;5019121;28;20049;-83
2020/12/17 01:45:05;;;;;;;18.23;11.30;;;5.60;99.90;;;;;;5026538;28;20069;-83
2020/12/17 01:47:38;;;;;;;16.95;10.80;;;5.60;99.90;;;;;;5018093;28;20470;-83
2020/12/17 01:50:07;;;;;;;15.18;10.25;;;5.60;99.90;;;;;;5018656;28;20096;-83
2020/12/17 01:52:33;;;;;;;16.08;10.65;;;5.60;99.90;;;;;;5016890;28;20046;-83
2020/12/17 01:55:01;;;;;;;16.90;10.98;;;5.60;99.90;;;;;;5018546;28;20132;-83
2020/12/17 01:57:32;;;;;;;14.98;10.27;;;5.60;99.90;;;;;;5018533;28;20479;-82
2020/12/17 02:00:05;;;;;;;16.65;11.00;;;5.60;99.90;;;;;;5018460;28;20066;-82
2020/12/17 02:02:34;;;;;;;14.32;9.82;;;5.60;99.90;;;;;;5016655;28;20085;-83
2020/12/17 02:05:01;;;;;;;12.45;9.25;;;5.60;99.90;;;;;;5017159;28;20045;-83
2020/12/17 02:07:38;;;;;;;13.80;9.73;;;5.50;99.90;;;;;;5017379;28;20073;-82
2020/12/17 02:10:04;;;;;;;14.63;9.50;;;5.50;99.90;;;;;;5021241;28;20053;-83
2020/12/17 02:12:45;;;;;;;12.50;8.52;;;5.50;99.90;;;;;;5021330;28;20058;-82
2020/12/17 02:15:12;;;;;;;13.25;9.20;;;5.50;99.90;;;;;;5019818;28;20128;-82
2020/12/17 02:17:39;;;;;;;12.35;8.68;;;5.50;99.90;;;;;;5020508;28;20106;-82
2020/12/17 02:20:07;;;;;;;13.90;9.27;;;5.40;99.90;;;;;;5021720;28;20130;-82
2020/12/17 02:22:34;;;;;;;11.70;8.23;;;5.40;99.90;;;;;;5020858;28;20092;-82
2020/12/17 02:25:02;;;;;;;11.90;8.25;;;5.30;99.90;;;;;;5019830;28;20089;-83
2020/12/17 02:27:28;;;;;;;11.25;8.05;;;5.30;99.90;;;;;;5021463;28;20085;-82
2020/12/17 02:29:54;;;;;;;10.02;7.47;;;5.20;99.90;;;;;;5019896;28;20060;-82
2020/12/17 02:32:20;;;;;;;13.15;8.55;;;5.20;99.90;;;;;;5019290;28;20136;-82
2020/12/17 02:34:47;;;;;;;9.27;7.47;;;5.20;99.90;;;;;;5020491;28;20080;-82
2020/12/17 02:37:14;;;;;;;9.18;6.90;;;5.20;99.90;;;;;;5020398;28;20049;-83
2020/12/17 02:39:40;;;;;;;11.35;7.70;;;5.20;99.90;;;;;;5018872;28;20487;-82
2020/12/17 02:42:07;;;;;;;9.15;6.80;;;5.20;99.90;;;;;;5019178;28;20088;-83
2020/12/17 02:44:34;;;;;;;11.48;7.07;;;5.20;99.90;;;;;;5020755;28;20089;-82
2020/12/17 02:47:00;;;;;;;10.00;7.05;;;5.20;99.90;;;;;;5020177;28;20081;-82
2020/12/17 02:49:26;;;;;;;9.90;7.28;;;5.20;99.90;;;;;;5018764;28;20050;-82
2020/12/17 02:51:53;;;;;;;10.98;7.75;;;5.20;99.90;;;;;;5020665;28;20046;-81
2020/12/17 02:54:19;;;;;;;11.95;7.97;;;5.30;99.90;;;;;;5020018;28;20052;-82
2020/12/17 02:56:45;;;;;;;11.55;7.90;;;5.20;99.90;;;;;;5020071;28;20133;-82
2020/12/17 02:59:11;;;;;;;12.38;8.32;;;5.20;99.90;;;;;;5018824;28;20050;-82
2020/12/17 03:01:38;;;;;;;12.45;8.45;;;5.20;99.90;;;;;;5018053;28;20190;-81
2020/12/17 03:04:04;;;;;;;11.80;8.07;;;5.30;99.90;;;;;;5017898;28;20096;-83
2020/12/17 03:06:30;;;;;;;14.00;8.60;;;5.30;99.90;;;;;;5018491;28;20443;-82
2020/12/17 03:08:57;;;;;;;12.60;8.52;;;5.30;99.90;;;;;;5020003;28;20423;-82
2020/12/17 03:11:23;;;;;;;17.45;9.73;;;5.30;99.90;;;;;;5018398;28;20573;-82
2020/12/17 03:13:49;;;;;;;15.23;8.68;;;5.30;99.90;;;;;;5019090;28;20105;-82
2020/12/17 03:16:16;;;;;;;14.18;8.95;;;5.30;99.90;;;;;;5017927;28;20048;-82
2020/12/17 03:18:42;;;;;;;13.88;9.43;;;5.20;99.90;;;;;;5019090;28;20070;-82
2020/12/17 03:21:08;;;;;;;18.60;10.65;;;5.20;99.90;;;;;;5017499;28;20136;-82
2020/12/17 03:23:36;;;;;;;12.43;8.93;;;5.20;99.90;;;;;;5020734;28;20137;-81
2020/12/17 03:26:02;;;;;;;15.45;9.90;;;5.20;99.90;;;;;;5021044;28;20117;-82
2020/12/17 03:28:28;;;;;;;13.70;9.48;;;5.30;99.90;;;;;;5017793;28;20081;-82
2020/12/17 03:30:55;;;;;;;14.75;9.45;;;5.30;99.90;;;;;;5037734;28;20579;-83
2020/12/17 03:33:21;;;;;;;14.77;9.05;;;5.30;99.90;;;;;;5041110;28;20077;-82
2020/12/17 03:35:47;;;;;;;16.15;9.60;;;5.30;99.90;;;;;;5040037;28;20041;-82
2020/12/17 03:38:14;;;;;;;13.73;8.65;;;5.40;99.90;;;;;;5021920;28;20441;-82
2020/12/17 03:40:41;;;;;;;14.18;9.00;;;5.40;99.90;;;;;;5021388;28;20464;-82
2020/12/17 03:43:07;;;;;;;13.93;8.20;;;5.40;99.90;;;;;;5021561;28;20490;-82
2020/12/17 03:45:33;;;;;;;12.73;8.32;;;5.40;99.90;;;;;;5021096;28;20076;-81
2020/12/17 03:47:59;;;;;;;12.48;8.10;;;5.40;99.90;;;;;;5039127;28;20415;-82
2020/12/17 03:50:26;;;;;;;12.02;8.52;;;5.40;99.90;;;;;;5038632;28;20077;-82
2020/12/17 03:52:52;;;;;;;13.95;8.63;;;5.40;99.90;;;;;;5038102;28;20513;-83
2020/12/17 03:55:18;;;;;;;13.02;8.00;;;5.40;99.90;;;;;;5019368;28;20133;-82
2020/12/17 03:57:44;;;;;;;11.88;7.57;;;5.40;99.90;;;;;;5019646;28;20076;-81
2020/12/17 04:00:12;;;;;;;10.98;7.50;;;5.40;99.90;;;;;;5036875;28;20087;-82
2020/12/17 04:02:38;;;;;;;10.70;7.10;;;5.40;99.90;;;;;;5037247;28;20050;-81
2020/12/17 04:05:04;;;;;;;10.30;7.10;;;5.50;99.90;;;;;;5037679;28;20085;-83
2020/12/17 04:07:31;;;;;;;13.15;7.55;;;5.50;99.90;;;;;;5019437;28;20092;-81
2020/12/17 04:09:58;;;;;;;13.45;7.80;;;5.40;99.90;;;;;;5037300;28;20136;-82
2020/12/17 04:12:24;;;;;;;10.93;7.30;;;5.40;99.90;;;;;;5037516;28;20128;-82
2020/12/17 04:14:50;;;;;;;12.23;7.80;;;5.50;99.90;;;;;;5036995;28;20095;-81
2020/12/17 04:17:17;;;;;;;11.80;7.15;;;5.50;99.90;;;;;;5019089;28;20041;-82
2020/12/17 04:19:43;;;;;;;12.70;8.20;;;5.50;99.90;;;;;;5037029;28;20081;-81
2020/12/17 04:22:16;;;;;;;11.27;7.78;;;5.50;99.90;;;;;;5036745;28;20081;-81
2020/12/17 04:24:46;;;;;;;12.10;7.07;;;5.50;99.90;;;;;;5018899;28;20049;-81
2020/12/17 04:27:14;;;;;;;12.95;7.60;;;5.50;99.90;;;;;;5018570;28;20461;-82
2020/12/17 04:29:40;;;;;;;10.30;7.47;;;5.50;99.90;;;;;;5036930;28;20052;-81
2020/12/17 04:32:07;;;;;;;12.68;8.52;;;5.50;99.90;;;;;;5035467;28;20480;-81
2020/12/17 04:34:33;;;;;;;14.00;8.40;;;5.50;99.90;;;;;;5017996;28;20494;-82
2020/12/17 04:36:59;;;;;;;13.60;8.77;;;5.50;99.90;;;;;;5036486;28;20052;-82
2020/12/17 04:39:25;;;;;;;12.88;7.70;;;5.50;99.90;;;;;;5018113;28;20136;-81
2020/12/17 04:41:52;;;;;;;14.02;7.97;;;5.50;99.90;;;;;;5036086;28;20057;-82
2020/12/17 04:44:19;;;;;;;14.40;8.18;;;5.50;99.90;;;;;;5036310;28;20422;-82
2020/12/17 04:46:57;;;;;;;13.57;8.20;;;5.50;99.90;;;;;;5018373;28;20144;-81
2020/12/17 04:49:37;;;;;;;10.82;7.68;;;5.50;99.90;;;;;;5036015;28;20077;-81
2020/12/17 04:52:03;;;;;;;15.48;8.38;;;5.50;99.90;;;;;;5036136;28;20132;-81
2020/12/17 04:54:31;;;;;;;12.93;8.63;;;5.50;99.90;;;;;;5035744;28;20080;-81
2020/12/17 04:57:16;;;;;;;13.20;8.00;;;5.50;99.90;;;;;;5017823;28;20529;-81
2020/12/17 04:59:46;;;;;;;13.63;8.50;;;5.50;99.90;;;;;;5018220;28;20050;-81
2020/12/17 05:02:15;;;;;;;13.25;7.97;;;5.50;99.90;;;;;;5035623;28;20057;-81
2020/12/17 05:04:45;;;;;;;13.73;8.77;;;5.50;99.90;;;;;;5035752;28;20140;-82
2020/12/17 05:07:14;;;;;;;14.60;8.88;;;5.50;99.90;;;;;;5035660;28;20054;-81
2020/12/17 05:09:42;;;;;;;12.57;8.65;;;5.40;99.90;;;;;;5036150;28;20045;-81
2020/12/17 05:12:10;;;;;;;14.57;8.38;;;5.40;99.90;;;;;;5017877;28;20053;-82
2020/12/17 05:14:37;;;;;;;14.52;8.63;;;5.40;99.90;;;;;;5017891;28;20081;-83
2020/12/17 05:17:06;;;;;;;13.00;8.60;;;5.40;99.90;;;;;;5017526;28;20494;-81
2020/12/17 05:19:32;;;;;;;14.82;8.98;;;5.40;99.90;;;;;;5019120;28;20081;-83
2020/12/17 05:22:00;;;;;;;16.48;9.10;;;5.40;99.90;;;;;;5022147;28;20061;-82
2020/12/17 05:24:28;;;;;;;16.27;9.57;;;5.40;99.90;;;;;;5038222;28;20068;-83
2020/12/17 05:26:57;;;;;;;18.25;9.82;;;5.30;99.90;;;;;;5038868;28;20057;-82
2020/12/17 05:29:24;;;;;;;13.48;9.05;;;5.30;99.90;;;;;;5019634;28;20088;-82
2020/12/17 05:31:51;;;;;;;14.45;8.80;;;5.20;99.90;;;;;;5037686;28;20072;-82
2020/12/17 05:34:17;;;;;;;17.00;9.13;;;5.20;99.90;;;;;;5037135;28;20132;-82
2020/12/17 05:36:46;;;;;;;15.48;9.23;;;5.20;99.90;;;;;;5019234;28;20072;-81
2020/12/17 05:39:17;;;;;;;13.82;8.73;;;5.10;99.90;;;;;;5036261;28;20549;-81
2020/12/17 05:41:46;;;;;;;14.23;8.63;;;5.10;99.90;;;;;;5018562;28;20050;-82
2020/12/17 05:44:14;;;;;;;12.07;8.27;;;5.00;99.90;;;;;;5022289;28;20140;-82
2020/12/17 05:46:45;;;;;;;13.38;8.27;;;5.00;99.90;;;;;;5022503;28;20132;-82
2020/12/17 05:49:15;;;;;;;15.07;9.27;;;4.90;99.90;;;;;;5022282;28;20111;-82
2020/12/17 05:51:41;;;;;;;12.65;8.23;;;4.90;99.90;;;;;;5039607;28;20132;-82
2020/12/17 05:54:09;;;;;;;15.88;9.13;;;4.80;99.90;;;;;;5021960;28;20132;-81
2020/12/17 05:56:39;;;;;;;14.00;8.20;;;4.90;99.90;;;;;;5039368;28;20050;-81
2020/12/17 05:59:05;;;;;;;14.77;8.98;;;4.80;99.90;;;;;;5021263;28;20096;-81
2020/12/17 06:01:32;;;;;;;12.30;8.32;;;4.80;99.90;;;;;;5038706;28;20140;-82
2020/12/17 06:04:12;;;;;;;14.88;9.48;;;4.70;99.90;;;;;;5038890;28;20132;-81
2020/12/17 06:06:44;;;;;;;13.82;8.32;;;4.70;99.90;;;;;;5038292;28;20124;-81
2020/12/17 06:09:22;;;;;;;13.93;8.07;;;4.70;99.90;;;;;;5038515;28;20053;-81
2020/12/17 06:11:50;;;;;;;14.68;8.32;;;4.70;99.90;;;;;;5020700;28;20498;-81
2020/12/17 06:14:24;;;;;;;12.10;7.68;;;4.60;99.90;;;;;;5020434;28;20045;-81
2020/12/17 06:16:55;;;;;;;12.35;7.70;;;4.60;99.90;;;;;;5038280;28;20077;-82
2020/12/17 06:19:23;;;;;;;13.75;8.02;;;4.50;99.90;;;;;;5020309;28;20142;-81
2020/12/17 06:21:51;;;;;;;11.65;7.18;;;4.50;99.90;;;;;;5037712;28;20125;-82
2020/12/17 06:24:19;;;;;;;12.48;8.07;;;4.40;99.90;;;;;;5037860;28;20132;-81
2020/12/17 06:26:54;;;;;;;12.70;8.48;;;4.40;99.90;;;;;;5020154;28;20128;-81
2020/12/17 06:29:22;;;;;;;11.38;7.68;;;4.30;99.90;;;;;;5020109;28;20049;-81
2020/12/17 06:31:53;;;;;;;11.20;7.25;;;4.40;99.90;;;;;;5020924;28;20568;-82
2020/12/17 06:34:20;;;;;;;12.55;8.60;;;4.40;99.90;;;;;;5021346;28;20045;-81
2020/12/17 06:36:51;;;;;;;12.90;8.63;;;4.40;99.90;;;;;;5020961;28;20045;-80
2020/12/17 06:39:18;;;;;;;12.18;8.13;;;4.50;99.90;;;;;;5021623;28;20093;-82
2020/12/17 06:41:44;;;;;;;12.82;7.68;;;4.50;99.90;;;;;;5039154;28;20110;-81
2020/12/17 06:44:26;;;;;;;11.65;8.10;;;4.60;99.90;;;;;;5038719;28;20049;-81
2020/12/17 06:46:54;;;;;;;9.88;7.50;;;4.60;99.90;;;;;;5038597;28;20063;-81
2020/12/17 06:49:25;;;;;;;11.13;6.88;;;4.70;99.90;;;;;;5020754;28;20426;-81
2020/12/17 06:52:08;;;;;;;9.95;6.95;;;4.70;99.90;;;;;;5020930;28;20060;-81
2020/12/17 06:54:41;;;;;;;9.85;7.18;;;4.70;99.90;;;;;;5019810;28;20080;-81
2020/12/17 06:57:09;;;;;;;9.98;6.78;;;4.70;99.90;;;;;;5020224;28;20068;-81
2020/12/17 06:59:40;;;;;;;10.65;7.07;;;4.70;99.90;;;;;;5038354;28;20140;-82
2020/12/17 07:02:07;;;;;;;11.27;7.28;;;4.70;99.90;;;;;;5020944;28;20104;-81
2020/12/17 07:04:45;;;;;;;10.50;7.40;;;4.70;99.90;;;;;;5020198;28;20136;-81
2020/12/17 07:07:23;;;;;;;8.57;6.30;;;4.80;99.90;;;;;;5020114;28;20053;-82
2020/12/17 07:09:51;;;;;;;10.00;7.10;;;4.80;99.90;;;;;;5020379;28;20052;-83
2020/12/17 07:12:35;;;;;;;8.32;6.43;;;4.80;99.90;;;;;;5042113;28;20056;-82
2020/12/17 07:15:26;;;;;;;8.25;6.25;;;4.80;99.90;;;;;;5022944;28;20045;-82
2020/12/17 07:17:52;;;;;;;9.07;6.43;;;4.80;99.90;;;;;;5022057;28;20077;-83
2020/12/17 07:20:30;;;;;;;12.68;7.60;;;4.80;99.90;;;;;;5022391;28;20099;-82
2020/12/17 07:22:57;;;;;;;8.20;6.15;;;4.80;99.90;;;;;;5039844;28;20114;-82
2020/12/17 07:25:34;;;;;;;8.73;6.72;;;4.80;99.90;;;;;;5039061;28;20062;-82
2020/12/17 07:28:01;;;;;;;7.72;6.20;;;4.80;99.90;;;;;;5022215;28;20491;-83
2020/12/17 07:30:27;;;;;;;9.23;6.22;;;4.80;99.90;;;;;;5039137;28;20136;-82
2020/12/17 07:32:54;;;;;;;10.27;6.47;;;4.80;99.90;;;;;;5021556;28;20077;-81
2020/12/17 07:35:23;;;;;;;9.32;7.38;;;4.80;99.90;;;;;;5020704;28;20107;-81
2020/12/17 07:38:00;;;;;;;9.88;7.20;;;4.70;99.90;;;;;;5038920;28;20514;-81
2020/12/17 07:40:35;;;;;;;10.50;7.28;;;4.60;99.90;;;;;;5038262;28;20108;-81
2020/12/17 07:43:04;;;;;;;7.75;6.07;;;4.60;99.90;;;;;;5037862;28;20403;-81
2020/12/17 07:45:44;;;;;;;10.27;6.88;;;4.60;99.90;;;;;;5020264;28;20077;-81
2020/12/17 07:48:36;;;;;;;8.60;6.63;;;4.60;99.90;;;;;;5037941;28;20076;-81
2020/12/17 07:51:12;;;;;;;13.00;7.93;;;4.70;99.90;;;;;;5019775;28;20088;-81
2020/12/17 07:53:43;;;;;;;12.95;8.73;;;4.70;99.90;;;;;;5019511;28;20165;-81
2020/12/17 07:56:10;;;;;;;14.63;10.07;;;4.70;99.90;;;;;;5020179;28;20491;-82
2020/12/17 07:58:37;;;;;;;11.63;8.18;;;4.70;99.90;;;;;;5037009;28;20041;-81
2020/12/17 08:01:05;;;;;;;10.95;7.70;;;4.70;99.90;;;;;;5036025;28;20577;-80
2020/12/17 08:03:47;;;;;;;11.43;7.95;;;4.70;99.90;;;;;;5022213;28;20057;-81
2020/12/17 08:06:20;;;;;;;11.15;7.35;;;4.70;99.90;;;;;;5014436;28;20049;-81
2020/12/17 08:08:47;;;;;;;11.75;7.53;;;4.70;99.90;;;;;;5015934;28;20137;-82
2020/12/17 08:11:33;;;;;;;12.25;8.73;;;4.70;99.90;;;;;;5014912;28;20045;-81
2020/12/17 08:14:05;;;;;;;12.25;7.93;;;4.70;99.90;;;;;;5015225;28;20060;-82
2020/12/17 08:16:32;;;;;;;12.02;7.55;;;4.70;99.90;;;;;;5016311;28;20084;-81
2020/12/17 08:19:00;;;;;;;10.68;7.85;;;4.70;99.90;;;;;;5016838;28;20073;-81
2020/12/17 08:21:27;;;;;;;10.48;7.30;;;4.70;99.90;;;;;;5016040;28;20049;-81
2020/12/17 08:23:54;;;;;;;10.90;7.93;;;4.80;99.90;;;;;;5014725;28;20177;-81
2020/12/17 08:26:23;;;;;;;11.15;7.78;;;4.80;99.90;;;;;;5014319;28;20133;-81
2020/12/17 08:28:50;;;;;;;9.85;7.25;;;4.90;99.90;;;;;;5016777;28;20108;-81
2020/12/17 08:31:25;;;;;;;9.95;6.93;;;4.90;99.90;;;;;;5015323;28;20140;-81
2020/12/17 08:33:52;;;;;;;10.25;7.95;;;5.00;99.90;;;;;;5015204;28;20052;-81
2020/12/17 08:36:23;;;;;;;14.88;7.85;;;5.00;99.90;;;;;;5014840;28;20041;-81
2020/12/17 08:39:02;;;;;;;11.82;8.15;;;5.00;99.90;;;;;;5014803;28;20132;-81
2020/12/17 08:41:49;;;;;;;11.82;7.75;;;5.00;99.90;;;;;;5015789;28;20128;-82
2020/12/17 08:44:37;;;;;;;10.30;7.00;;;5.00;99.90;;;;;;5014756;28;20132;-81
2020/12/17 08:47:07;;;;;;;10.65;7.28;;;5.00;99.90;;;;;;5022607;28;20135;-81
2020/12/17 08:49:34;;;;;;;10.20;7.22;;;5.10;99.90;;;;;;5014602;28;20133;-81
2020/12/17 08:52:01;;;;;;;12.38;7.55;;;5.10;99.90;;;;;;5013207;28;20109;-83
2020/12/17 08:54:33;;;;;;;11.00;7.88;;;5.10;99.90;;;;;;5015875;28;20491;-81
2020/12/17 08:57:01;;;;;;;9.95;7.28;;;5.10;99.90;;;;;;5016374;28;20128;-81
2020/12/17 08:59:27;;;;;;;8.93;7.47;;;5.10;99.90;;;;;;5013608;28;20477;-81
2020/12/17 09:01:56;;;;;;;9.38;7.05;;;5.10;99.90;;;;;;5016754;28;20049;-82
2020/12/17 09:04:22;;;;;;;9.52;6.38;;;5.10;99.90;;;;;;5035855;28;20053;-82
2020/12/17 09:06:53;;;;;;;9.77;7.15;;;5.10;99.90;;;;;;5016331;28;20088;-82
2020/12/17 09:09:27;;;;;;;12.02;7.35;;;5.10;99.90;;;;;;5013619;28;20552;-81
2020/12/17 09:12:10;;;;;;;8.30;6.40;;;5.10;99.90;;;;;;5014247;28;20049;-81
2020/12/17 09:14:38;;;;;;;9.73;7.03;;;5.10;99.90;;;;;;5014158;28;20494;-81
2020/12/17 09:17:16;;;;;;;8.52;6.80;;;5.20;99.90;;;;;;5015246;28;20050;-81
2020/12/17 09:19:43;;;;;;;9.85;7.50;;;5.20;99.90;;;;;;5020279;28;20054;-81
2020/12/17 09:22:11;;;;;;;8.57;7.30;;;5.10;99.90;;;;;;5016222;28;20509;-81
2020/12/17 09:24:39;;;;;;;10.13;7.55;;;5.20;99.90;;;;;;5016145;28;20531;-81
2020/12/17 09:27:20;;;;;;;8.52;7.05;;;5.30;99.90;;;;;;4978726;28;20058;-82
2020/12/17 09:30:06;;;;;;;9.35;6.90;;;5.30;99.90;;;;;;4980264;28;20054;-81
2020/12/17 09:32:35;;;;;;;11.20;7.32;;;5.30;99.90;;;;;;4997105;28;20435;-82
2020/12/17 09:35:12;;;;;;;8.50;6.90;;;5.30;99.90;;;;;;4996620;28;20455;-81
2020/12/17 09:37:41;;;;;;;9.15;7.13;;;5.30;99.90;;;;;;4996902;28;20507;-81
2020/12/17 09:40:09;;;;;;;10.55;7.28;;;5.30;99.90;;;;;;4996708;28;20105;-82
2020/12/17 09:42:36;;;;;;;9.38;6.78;;;5.40;99.90;;;;;;4979469;28;20053;-81
2020/12/17 09:45:17;;;;;;;9.80;7.43;;;5.50;99.90;;;;;;4995919;28;20081;-81
2020/12/17 09:47:44;;;;;;;8.32;7.00;;;5.60;99.90;;;;;;4979365;28;20168;-81
2020/12/17 09:50:17;;;;;;;10.32;7.05;;;5.80;99.90;;;;;;4979375;28;20046;-82
2020/12/17 09:52:44;;;;;;;9.27;6.95;;;5.90;99.90;;;;;;4979153;28;20078;-81
2020/12/17 09:55:13;;;;;;;10.02;7.00;;;5.80;99.90;;;;;;4996580;28;20074;-81
2020/12/17 09:57:43;;;;;;;8.48;6.60;;;5.80;99.90;;;;;;4979149;28;20133;-81
2020/12/17 10:00:12;;;;;;;8.65;6.53;;;5.80;99.90;;;;;;4996499;28;20046;-81
2020/12/17 10:02:40;;;;;;;7.97;7.00;;;5.80;99.90;;;;;;4978738;28;20093;-81
2020/12/17 10:05:11;;;;;;;8.13;6.85;;;5.80;99.90;;;;;;4997101;28;20105;-81
2020/12/17 10:07:38;;;;;;;9.00;6.65;;;5.80;99.90;;;;;;5034506;28;20099;-81
2020/12/17 10:10:06;;;;;;;8.68;6.80;;;5.80;99.90;;;;;;5016734;28;20136;-81
2020/12/17 10:12:43;;;;;;;12.77;6.97;;;5.80;99.90;;;;;;5017852;28;20413;-81
2020/12/17 10:15:09;;;;;;;8.07;6.63;;;5.80;99.90;;;;;;5017682;28;20056;-82
2020/12/17 10:17:36;;;;;;;11.60;7.47;;;5.80;99.90;;;;;;5017789;28;20069;-82
2020/12/17 10:20:06;;;;;;;8.60;6.72;;;5.80;99.90;;;;;;5035037;28;20080;-81
2020/12/17 10:22:42;;;;;;;9.43;7.38;;;5.80;99.90;;;;;;5035011;28;20562;-81
2020/12/17 10:25:09;;;;;;;9.50;6.95;;;5.80;99.90;;;;;;5017145;28;20056;-82
2020/12/17 10:27:35;;;;;;;8.15;6.32;;;5.90;99.90;;;;;;5034295;28;20136;-83
2020/12/17 10:30:01;;;;;;;9.15;7.25;;;6.00;99.90;;;;;;5016970;28;20049;-82
2020/12/17 10:32:28;;;;;;;8.40;7.03;;;6.10;99.90;;;;;;5020815;28;20490;-81
2020/12/17 10:34:54;;;;;;;8.90;7.13;;;6.00;99.90;;;;;;5038530;28;20050;-82
2020/12/17 10:37:24;;;;;;;8.48;6.22;;;6.10;99.90;;;;;;5021373;28;20115;-81
2020/12/17 10:39:50;;;;;;;8.00;6.35;;;6.40;99.90;;;;;;5028576;28;20045;-82
2020/12/17 10:42:19;;;;;;;9.02;6.75;;;6.50;99.90;;;;;;5023169;28;20052;-81
2020/12/17 10:44:46;;;;;;;9.00;6.82;;;6.70;99.90;;;;;;5018114;28;20100;-82
2020/12/17 10:47:13;;;;;;;9.57;7.18;;;6.60;99.90;;;;;;5026221;28;20465;-82
2020/12/17 10:49:39;;;;;;;8.55;6.90;;;6.70;99.90;;;;;;5021649;28;20041;-81
2020/12/17 10:52:07;;;;;;;11.07;8.38;;;6.70;99.90;;;;;;5028132;28;20060;-82
2020/12/17 10:54:33;;;;;;;8.02;6.45;;;6.60;99.90;;;;;;5029827;28;20468;-82
2020/12/17 10:56:59;;;;;;;7.55;6.18;;;6.50;99.90;;;;;;5024692;28;20052;-82
2020/12/17 10:59:26;;;;;;;8.07;6.30;;;6.70;99.90;;;;;;5015541;28;20050;-82
2020/12/17 11:01:56;;;;;;;8.65;6.30;;;6.90;99.90;;;;;;5018819;28;20088;-81
2020/12/17 11:04:23;;;;;;;6.78;5.95;;;7.20;99.90;;;;;;5017784;28;20050;-81
2020/12/17 11:06:49;;;;;;;6.90;5.63;;;7.30;99.90;;;;;;5017622;28;20225;-81
2020/12/17 11:09:16;;;;;;;5.68;5.07;;;7.40;99.90;;;;;;5018359;28;20554;-82
2020/12/17 11:11:43;;;;;;;7.35;6.00;;;7.40;99.90;;;;;;5018800;28;20073;-82
2020/12/17 11:14:10;;;;;;;6.88;5.68;;;7.40;99.90;;;;;;5018320;28;20045;-81
2020/12/17 11:16:36;;;;;;;6.75;5.72;;;7.20;99.90;;;;;;5017424;28;20096;-81
2020/12/17 11:19:03;;;;;;;6.22;5.63;;;7.30;99.90;;;;;;5016559;28;20087;-81
2020/12/17 11:21:29;;;;;;;7.38;4.78;;;7.40;99.90;;;;;;5017265;28;20045;-81
2020/12/17 11:23:55;;;;;;;6.40;5.38;;;7.50;99.90;;;;;;5017158;28;20057;-81
2020/12/17 11:26:22;;;;;;;7.47;6.00;;;7.40;99.90;;;;;;5016226;28;20136;-81
2020/12/17 11:28:48;;;;;;;6.40;5.80;;;7.30;99.90;;;;;;5016951;28;20133;-80
2020/12/17 11:31:14;;;;;;;7.13;5.85;;;7.30;99.90;;;;;;5015958;28;20112;-82
2020/12/17 11:33:40;;;;;;;8.98;6.32;;;7.30;99.90;;;;;;5016773;28;20053;-81
2020/12/17 11:36:07;;;;;;;6.90;5.57;;;7.40;99.90;;;;;;5018101;28;20076;-82
2020/12/17 11:38:33;;;;;;;7.25;6.10;;;7.50;99.90;;;;;;5017901;28;20052;-81
2020/12/17 11:40:59;;;;;;;7.03;5.88;;;7.50;99.90;;;;;;5018223;28;20070;-82
2020/12/17 11:43:33;;;;;;;7.32;5.82;;;7.50;99.90;;;;;;5016514;28;20117;-81
2020/12/17 11:46:01;;;;;;;6.78;5.80;;;7.60;99.90;;;;;;5017815;28;20045;-82
2020/12/17 11:48:27;;;;;;;6.18;5.55;;;7.60;99.90;;;;;;5017872;28;20088;-82
2020/12/17 11:50:53;;;;;;;6.57;5.82;;;7.70;99.90;;;;;;5017608;28;20494;-82
2020/12/17 11:53:19;;;;;;;6.93;5.88;;;7.70;99.90;;;;;;5017421;28;20141;-82
2020/12/17 11:55:46;;;;;;;6.18;5.45;;;7.60;99.90;;;;;;5015469;28;20080;-81
2020/12/17 11:58:12;;;;;;;5.80;5.20;;;7.70;99.90;;;;;;5026647;28;20093;-81
2020/12/17 12:00:39;;;;;;;6.60;5.75;;;7.50;99.90;;;;;;5036485;28;20041;-83
2020/12/17 12:03:05;;;;;;;6.95;5.40;;;7.60;99.90;;;;;;5035232;28;20030;-83
2020/12/17 12:05:32;;;;;;;9.90;6.22;;;7.60;99.90;;;;;;5035312;28;20056;-82
2020/12/17 12:07:58;;;;;;;9.30;6.22;;;7.60;99.90;;;;;;5021407;28;20105;-83
2020/12/17 12:10:25;;;;;;;13.75;5.63;;;7.60;99.90;;;;;;5027227;28;20042;-83
2020/12/17 12:12:51;;;;;;;7.43;5.25;;;7.70;99.90;;;;;;5022000;28;20521;-83
2020/12/17 12:15:17;;;;;;;8.05;5.82;;;7.70;99.90;;;;;;5021079;28;20540;-82
2020/12/17 12:17:44;;;;;;;8.45;6.65;;;7.60;99.90;;;;;;5022894;28;20068;-83
2020/12/17 12:20:11;;;;;;;8.02;6.25;;;7.50;99.90;;;;;;5021995;28;20045;-83
2020/12/17 12:22:37;;;;;;;7.28;5.88;;;7.50;99.90;;;;;;5039679;28;20073;-83
2020/12/17 12:25:04;;;;;;;7.70;5.78;;;7.40;99.90;;;;;;5039262;28;20057;-83
2020/12/17 12:27:30;;;;;;;10.60;6.15;;;7.30;99.90;;;;;;5039841;28;20073;-83
2020/12/17 12:29:57;;;;;;;9.80;6.53;;;7.20;99.90;;;;;;5022188;28;20081;-83
2020/12/17 12:32:23;;;;;;;10.27;6.32;;;7.20;99.90;;;;;;5021354;28;20465;-82
2020/12/17 12:34:49;;;;;;;9.18;5.70;;;7.20;99.90;;;;;;5039419;28;20072;-82
2020/12/17 12:37:15;;;;;;;7.90;5.97;;;7.20;99.90;;;;;;5021789;28;20041;-83
2020/12/17 12:39:42;;;;;;;8.57;6.50;;;7.00;99.90;;;;;;5022452;28;20049;-81
2020/12/17 12:42:09;;;;;;;7.82;6.20;;;6.90;99.90;;;;;;5038712;28;20041;-82
2020/12/17 12:44:35;;;;;;;8.32;7.15;;;6.90;99.90;;;;;;5029874;28;20073;-82
2020/12/17 12:47:02;;;;;;;8.68;6.72;;;6.80;99.90;;;;;;5029252;28;20046;-82
2020/12/17 12:49:29;;;;;;;13.25;7.20;;;6.80;99.90;;;;;;5018990;28;20088;-81
2020/12/17 12:51:55;;;;;;;10.90;8.43;;;6.70;99.90;;;;;;5018816;28;20077;-81
2020/12/17 12:54:21;;;;;;;34.53;9.23;;;6.60;99.90;;;;;;5012196;28;20045;-81
2020/12/17 12:56:47;;;;;;;11.35;7.72;;;6.50;99.90;;;;;;5016048;28;20077;-82